Impacts METAR Board
IDs:

KMDW - Chicago/Midway Intl, IL, US

Updated at: 0900 UTC 19 Jul 2018
Potential Impact None Slight Moderate High
Time 18/21Z 18/22Z 18/23Z 19/00Z 19/01Z 19/02Z 19/03Z 19/04Z 19/05Z 19/06Z 19/07Z 19/08Z 19/09Z
Temp78 77 77 75 74 74 73 72 71 69 70 69 69
Dewpt52 51 51 52 51 50 53 58 59 58 58 60 59
Altim30.09 30.07 30.07 30.06 30.05 30.04 30.05 30.05 30.05 30.04 30.04 30.03 30.02
VIS10 10 10 10 10 10 10 10 10 10 10 10 10
CIG-- 250 250 250 250 250 250 250 250 250 250 250 --
CoverFEWBKNBKNBKNBKNBKNBKNOVCOVCOVCOVCBKNFEW
FltCatVFRVFRVFRVFRVFRVFRVFRVFRVFRVFRVFRVFRVFR
WX--------------------------
WDir9050609070701001009010012000
WSpd9 10 10 10 9 7 7 5 5 3 4 0 0
WGst-- -- -- -- -- -- -- -- -- -- -- -- --
Raw hourly METARs
KMDW 182053Z 09009KT 060V120 10SM FEW055 FEW250 26/11 A3009 RMK AO2 SLP181 T02560111 58011
KMDW 182153Z 05010KT 10SM FEW050 BKN250 25/11 A3007 RMK AO2 SLP176 T02500106
KMDW 182253Z 06010KT 10SM FEW050 BKN250 25/11 A3007 RMK AO2 SLP173 T02500106
KMDW 182353Z 09010KT 10SM FEW100 BKN250 24/11 A3006 RMK AO2 SLP169 T02390111 10261 20239 56012
KMDW 190053Z 07009KT 10SM BKN250 23/11 A3005 RMK AO2 SLP168 T02330106
KMDW 190153Z 07007KT 10SM BKN250 23/10 A3004 RMK AO2 SLP165 T02330100
KMDW 190253Z 10007KT 10SM BKN250 23/12 A3005 RMK AO2 SLP167 T02280117 55002
KMDW 190353Z 10005KT 10SM OVC250 22/14 A3005 RMK AO2 SLP166 T02220144
KMDW 190453Z 09005KT 10SM OVC250 22/15 A3005 RMK AO2 SLP166 T02170150
KMDW 190553Z 10003KT 10SM OVC250 21/14 A3004 RMK AO2 SLP165 T02060144 10239 20206 402610178 56002
KMDW 190653Z 12004KT 10SM OVC250 21/14 A3004 RMK AO2 SLP163 T02110144
KMDW 190753Z 00000KT 10SM BKN250 21/16 A3003 RMK AO2 SLP160 T02060156
KMDW 190853Z 00000KT 10SM FEW250 21/15 A3002 RMK AO2 SLP158 T02060150 57007



Page loaded:  09:31 UTC  |   02:31 AM Pacific  |   03:31 AM Mountain  |   04:31 AM Central  |   05:31 AM Eastern

 

ADVISORIES

FORECASTS

FORECASTS

OBSERVATIONS

USER TOOLS

ABOUT US